createdAt,value
2022-11-29T00:01:38.194Z,8.15
2022-11-29T00:04:07.736Z,8.82
2022-11-29T00:06:37.463Z,8.95
2022-11-29T00:09:11.434Z,8.07
2022-11-29T00:11:58.108Z,8.05
2022-11-29T00:14:26.518Z,10.55
2022-11-29T00:16:55.675Z,9.10
2022-11-29T00:19:22.884Z,8.02
2022-11-29T00:21:49.643Z,8.50
2022-11-29T00:24:16.539Z,8.10
2022-11-29T00:26:43.262Z,7.93
2022-11-29T00:29:13.568Z,7.88
2022-11-29T00:31:41.009Z,8.15
2022-11-29T00:34:09.552Z,7.60
2022-11-29T00:36:36.472Z,7.40
2022-11-29T00:39:05.264Z,7.55
2022-11-29T00:41:32.346Z,8.10
2022-11-29T00:43:59.150Z,7.43
2022-11-29T00:46:28.098Z,7.45
2022-11-29T00:48:54.972Z,8.30
2022-11-29T00:51:21.702Z,8.63
2022-11-29T00:53:48.794Z,7.70
2022-11-29T00:56:16.241Z,8.65
2022-11-29T00:58:45.439Z,8.90
2022-11-29T01:01:12.185Z,8.52
2022-11-29T01:03:41.360Z,7.90
2022-11-29T01:06:14.278Z,8.02
2022-11-29T01:08:46.220Z,8.45
2022-11-29T01:11:19.882Z,8.82
2022-11-29T01:13:49.447Z,8.32
2022-11-29T01:16:17.448Z,7.90
2022-11-29T01:18:46.521Z,8.80
2022-11-29T01:21:18.378Z,8.20
2022-11-29T01:23:46.083Z,8.07
2022-11-29T01:26:18.319Z,9.27
2022-11-29T01:28:51.377Z,8.98
2022-11-29T01:31:24.285Z,8.82
2022-11-29T01:33:59.289Z,9.05
2022-11-29T01:36:27.030Z,9.63
2022-11-29T01:38:53.793Z,10.00
2022-11-29T01:41:25.177Z,9.10
2022-11-29T01:44:26.891Z,9.45
2022-11-29T01:46:58.713Z,10.20
2022-11-29T01:49:36.827Z,9.45
2022-11-29T01:52:11.614Z,9.80
2022-11-29T01:54:45.936Z,9.73
2022-11-29T01:57:13.450Z,9.40
2022-11-29T01:59:46.628Z,9.55
2022-11-29T02:02:16.188Z,9.55
2022-11-29T02:04:45.806Z,9.45
2022-11-29T02:07:12.881Z,9.35
2022-11-29T02:09:44.300Z,9.35
2022-11-29T02:12:28.997Z,8.98
2022-11-29T02:15:03.449Z,9.38
2022-11-29T02:18:02.370Z,8.93
2022-11-29T02:20:29.029Z,9.25
2022-11-29T02:23:17.164Z,9.80
2022-11-29T02:26:22.960Z,9.50
2022-11-29T02:29:14.635Z,9.18
2022-11-29T02:31:59.951Z,9.68
2022-11-29T02:34:57.777Z,10.18
2022-11-29T02:37:39.951Z,10.00
2022-11-29T02:40:28.483Z,9.75
2022-11-29T02:43:07.219Z,9.65
2022-11-29T02:46:16.438Z,10.20
2022-11-29T02:48:55.703Z,10.60
2022-11-29T02:51:45.591Z,10.38
2022-11-29T02:54:37.287Z,10.48
2022-11-29T02:57:29.461Z,11.65
2022-11-29T03:00:05.125Z,10.48
2022-11-29T03:05:39.289Z,10.98
2022-11-29T03:08:31.894Z,9.93
2022-11-29T03:11:16.115Z,10.35
2022-11-29T03:13:52.487Z,11.55
2022-11-29T03:16:43.636Z,11.60
2022-11-29T03:19:40.854Z,12.02
2022-11-29T03:22:26.571Z,12.18
2022-11-29T03:25:02.159Z,12.73
2022-11-29T03:30:08.145Z,13.23
2022-11-29T03:32:50.087Z,13.77
2022-11-29T03:35:43.503Z,14.27
2022-11-29T03:38:24.729Z,14.48
2022-11-29T03:41:10.108Z,14.75
2022-11-29T03:43:50.496Z,14.60
2022-11-29T03:46:35.787Z,14.65
2022-11-29T03:49:11.833Z,15.48
2022-11-29T03:52:12.761Z,14.85
2022-11-29T03:55:19.754Z,15.18
2022-11-29T04:00:14.233Z,13.98
2022-11-29T04:02:58.085Z,14.93
2022-11-29T04:05:45.616Z,15.90
2022-11-29T04:08:43.371Z,16.92
2022-11-29T04:11:09.972Z,16.70
2022-11-29T04:14:03.984Z,17.25
2022-11-29T04:16:47.827Z,17.48
2022-11-29T04:20:11.355Z,18.05
2022-11-29T04:23:08.194Z,17.70
2022-11-29T04:26:08.423Z,18.80
2022-11-29T04:28:52.480Z,19.75
2022-11-29T04:31:28.100Z,20.83
2022-11-29T04:37:14.699Z,21.35
2022-11-29T04:40:06.055Z,21.98
2022-11-29T04:42:45.055Z,23.60
2022-11-29T04:45:25.868Z,24.17
2022-11-29T04:48:17.158Z,25.02
2022-11-29T04:51:17.758Z,24.20
2022-11-29T04:54:03.410Z,25.70
2022-11-29T04:56:40.418Z,27.73
2022-11-29T04:59:40.904Z,26.40
2022-11-29T05:02:32.708Z,26.92
2022-11-29T05:05:17.810Z,28.20
2022-11-29T05:08:29.111Z,27.77
2022-11-29T05:11:26.526Z,25.52
2022-11-29T05:14:14.608Z,26.90
2022-11-29T05:16:48.996Z,26.80
2022-11-29T05:19:43.134Z,28.70
2022-11-29T05:22:40.672Z,29.50
2022-11-29T05:25:45.340Z,29.80
2022-11-29T05:28:30.776Z,29.98
2022-11-29T05:31:19.491Z,32.10
2022-11-29T05:34:17.113Z,31.08
2022-11-29T05:36:48.939Z,29.05
2022-11-29T05:39:39.957Z,30.02
2022-11-29T05:42:37.104Z,32.40
2022-11-29T05:45:20.326Z,31.40
2022-11-29T05:47:54.018Z,32.47
2022-11-29T05:50:30.650Z,29.42
2022-11-29T05:53:04.067Z,30.10
2022-11-29T05:55:47.654Z,30.15
2022-11-29T05:58:42.798Z,32.20
2022-11-29T06:01:33.735Z,31.40
2022-11-29T06:04:14.589Z,31.23
2022-11-29T06:07:03.645Z,31.15
2022-11-29T06:09:37.615Z,32.60
2022-11-29T06:12:14.862Z,34.30
2022-11-29T06:14:57.013Z,34.80
2022-11-29T06:17:41.701Z,34.00
2022-11-29T06:20:34.383Z,34.33
2022-11-29T06:23:07.292Z,34.15
2022-11-29T06:26:11.609Z,38.90
2022-11-29T06:28:48.266Z,37.13
2022-11-29T06:31:26.540Z,38.45
2022-11-29T06:34:19.194Z,39.28
2022-11-29T06:36:55.630Z,39.22
2022-11-29T06:39:25.095Z,37.40
2022-11-29T06:41:51.788Z,41.90
2022-11-29T06:44:18.863Z,42.13
2022-11-29T06:47:24.103Z,41.85
2022-11-29T06:50:05.396Z,39.25
2022-11-29T06:52:43.853Z,38.38
2022-11-29T06:55:44.804Z,39.25
2022-11-29T06:58:36.171Z,37.92
2022-11-29T07:01:22.025Z,38.90
2022-11-29T07:03:58.180Z,38.35
2022-11-29T07:06:27.630Z,37.38
2022-11-29T07:09:04.180Z,39.50
2022-11-29T07:11:31.261Z,36.60
2022-11-29T07:13:58.280Z,35.60
2022-11-29T07:16:40.088Z,35.85
2022-11-29T07:19:19.325Z,34.88
2022-11-29T07:21:55.275Z,37.53
2022-11-29T07:24:24.696Z,37.92
2022-11-29T07:27:35.376Z,35.50
2022-11-29T07:30:30.103Z,34.72
2022-11-29T07:33:19.527Z,34.63
2022-11-29T07:36:14.077Z,36.38
2022-11-29T07:39:10.372Z,37.80
2022-11-29T07:42:07.222Z,36.33
2022-11-29T07:45:06.570Z,35.65
2022-11-29T07:47:36.135Z,38.72
2022-11-29T07:50:06.040Z,38.40
2022-11-29T07:52:33.702Z,38.20
2022-11-29T07:55:01.347Z,36.53
2022-11-29T07:57:30.569Z,36.15
2022-11-29T07:59:59.514Z,35.83
2022-11-29T08:02:30.966Z,33.42
2022-11-29T08:04:58.254Z,35.83
2022-11-29T08:07:25.482Z,35.03
2022-11-29T08:09:52.221Z,33.78
2022-11-29T08:12:19.036Z,35.30
2022-11-29T08:14:45.924Z,34.70
2022-11-29T08:17:12.835Z,35.42
2022-11-29T08:19:39.481Z,30.98
2022-11-29T08:22:08.665Z,32.92
2022-11-29T08:24:35.495Z,36.60
2022-11-29T08:27:06.793Z,33.50
2022-11-29T08:29:33.643Z,32.47
2022-11-29T08:32:00.427Z,34.42
2022-11-29T08:34:32.032Z,33.90
2022-11-29T08:36:58.694Z,33.88
2022-11-29T08:39:29.829Z,32.80
2022-11-29T08:41:58.668Z,27.55
2022-11-29T08:44:25.544Z,30.83
2022-11-29T08:47:11.029Z,31.17
2022-11-29T08:49:57.685Z,29.85
2022-11-29T08:52:43.169Z,30.30
2022-11-29T08:55:14.707Z,31.45
2022-11-29T08:57:41.547Z,29.80
2022-11-29T09:00:09.201Z,31.58
2022-11-29T09:02:39.364Z,27.80
2022-11-29T09:05:09.785Z,29.67
2022-11-29T09:07:39.568Z,28.85
2022-11-29T09:10:09.438Z,28.00
2022-11-29T09:12:39.835Z,29.55
2022-11-29T09:15:09.662Z,29.52
2022-11-29T09:17:36.462Z,29.85
2022-11-29T09:20:05.227Z,31.00
2022-11-29T09:22:31.914Z,29.95
2022-11-29T09:25:01.216Z,27.35
2022-11-29T09:27:27.942Z,29.30
2022-11-29T09:29:57.100Z,28.48
2022-11-29T09:32:23.950Z,31.25
2022-11-29T09:34:50.706Z,30.65
2022-11-29T09:37:19.861Z,31.63
2022-11-29T09:39:51.286Z,31.20
2022-11-29T09:42:36.010Z,32.03
2022-11-29T09:45:05.042Z,29.63
2022-11-29T09:47:40.533Z,26.70
2022-11-29T09:50:28.959Z,29.05
2022-11-29T09:53:22.111Z,29.98
2022-11-29T09:56:07.433Z,28.77
2022-11-29T09:58:44.728Z,24.98
2022-11-29T10:01:19.356Z,26.55
2022-11-29T10:03:52.332Z,25.90
2022-11-29T10:06:26.865Z,27.98
2022-11-29T10:09:23.255Z,29.65
2022-11-29T10:12:15.503Z,28.35
2022-11-29T10:14:52.533Z,28.95
2022-11-29T10:17:33.014Z,27.90
2022-11-29T10:20:16.893Z,28.33
2022-11-29T15:09:20.642Z,27.27
2022-11-29T15:11:50.386Z,25.98
2022-11-29T15:14:58.996Z,27.15
2022-11-29T15:17:50.470Z,26.27
2022-11-29T15:20:38.534Z,26.92
2022-11-29T15:23:11.710Z,26.25
2022-11-29T15:25:50.808Z,26.75
2022-11-29T15:28:26.642Z,29.17
2022-11-29T15:31:07.391Z,26.48
2022-11-29T15:33:38.919Z,27.02
2022-11-29T15:36:20.241Z,27.80
2022-11-29T15:38:48.590Z,26.10
2022-11-29T15:41:27.299Z,27.17
2022-11-29T15:44:00.227Z,27.25
2022-11-29T15:46:29.300Z,26.08
2022-11-29T15:49:14.825Z,26.17
2022-11-29T15:51:42.186Z,27.17
2022-11-29T15:54:18.487Z,26.88
2022-11-29T15:56:54.667Z,26.38
2022-11-29T15:59:36.264Z,27.00
2022-11-29T16:02:10.200Z,25.95
2022-11-29T16:04:46.443Z,26.45
2022-11-29T16:07:14.842Z,28.17
2022-11-29T16:09:47.072Z,27.40
2022-11-29T16:12:18.309Z,28.75
2022-11-29T16:14:59.741Z,25.10
2022-11-29T16:17:35.280Z,24.73
2022-11-29T16:20:14.196Z,25.42
2022-11-29T16:22:41.001Z,24.70
2022-11-29T16:25:16.726Z,24.95
2022-11-29T16:27:46.554Z,25.20
2022-11-29T16:30:40.784Z,28.02
2022-11-29T16:33:23.218Z,25.55
2022-11-29T16:35:51.474Z,26.90
2022-11-29T16:38:23.519Z,27.92
2022-11-29T16:41:20.753Z,26.23
2022-11-29T16:43:54.019Z,26.63
2022-11-29T16:46:25.680Z,27.83
2022-11-29T16:48:54.299Z,28.00
2022-11-29T16:51:37.522Z,27.73
2022-11-29T16:54:24.983Z,26.85
2022-11-29T16:56:53.543Z,27.27
2022-11-29T16:59:33.331Z,27.02
2022-11-29T17:02:00.125Z,25.73
2022-11-29T17:04:26.916Z,26.20
2022-11-29T17:06:55.790Z,24.92
2022-11-29T17:09:27.202Z,25.52
2022-11-29T17:11:55.577Z,25.45
2022-11-29T17:14:22.509Z,25.27
2022-11-29T17:16:49.706Z,24.88
2022-11-29T17:19:17.342Z,24.23
2022-11-29T17:21:48.679Z,23.20
2022-11-29T17:24:17.770Z,23.20
2022-11-29T17:26:45.488Z,22.73
2022-11-29T17:29:14.122Z,23.48
2022-11-29T17:31:43.611Z,21.73
2022-11-29T17:34:10.741Z,20.98
2022-11-29T17:36:37.867Z,20.13
2022-11-29T17:39:07.929Z,21.02
2022-11-29T17:41:34.731Z,21.10
2022-11-29T17:44:01.905Z,22.27
2022-11-29T17:46:33.940Z,20.42
2022-11-29T17:49:02.357Z,19.73
2022-11-29T17:54:15.861Z,19.88
2022-11-29T17:56:42.782Z,18.67
2022-11-29T17:59:09.562Z,18.10
2022-11-29T18:01:36.944Z,17.85
2022-11-29T18:04:05.687Z,18.70
2022-11-29T18:06:40.461Z,18.30
2022-11-29T18:09:09.416Z,16.80
2022-11-29T18:11:46.828Z,17.67
2022-11-29T18:14:17.202Z,18.63
2022-11-29T18:16:46.988Z,18.05
2022-11-29T18:19:17.419Z,18.35
2022-11-29T18:21:44.606Z,18.60
2022-11-29T18:24:11.681Z,19.80
2022-11-29T18:26:39.049Z,22.42
2022-11-29T18:29:07.412Z,19.70
2022-11-29T18:31:38.838Z,19.83
2022-11-29T18:34:07.221Z,19.40
2022-11-29T18:36:37.267Z,19.85
2022-11-29T18:39:11.425Z,21.00
2022-11-29T18:41:38.347Z,21.88
2022-11-29T18:44:09.848Z,20.50
2022-11-29T18:46:38.290Z,19.75
2022-11-29T18:49:10.749Z,20.33
2022-11-29T18:51:38.937Z,20.90
2022-11-29T18:54:08.697Z,20.92
2022-11-29T18:56:37.045Z,21.75
2022-11-29T18:59:12.467Z,21.80
2022-11-29T19:01:42.917Z,22.55
2022-11-29T19:04:20.621Z,21.95
2022-11-29T19:06:48.368Z,23.92
2022-11-29T19:09:18.847Z,23.77
2022-11-29T19:11:48.205Z,24.83
2022-11-29T19:14:17.405Z,23.33
2022-11-29T19:16:49.416Z,21.35
2022-11-29T19:19:20.332Z,21.10
2022-11-29T19:21:49.223Z,19.85
2022-11-29T19:24:18.098Z,21.67
2022-11-29T19:26:51.292Z,20.75
2022-11-29T19:29:18.011Z,19.38
2022-11-29T19:31:44.840Z,19.13
2022-11-29T19:34:11.746Z,19.42
2022-11-29T19:36:43.386Z,20.50
2022-11-29T19:39:12.889Z,19.13
2022-11-29T19:41:41.580Z,20.73
2022-11-29T19:44:08.555Z,22.13
2022-11-29T19:46:41.508Z,20.50
2022-11-29T19:49:09.739Z,20.50
2022-11-29T19:51:36.841Z,22.15
2022-11-29T19:54:05.880Z,21.50
2022-11-29T19:56:33.478Z,21.95
2022-11-29T19:59:05.827Z,22.30
2022-11-29T20:01:40.404Z,22.45
2022-11-29T20:04:10.064Z,23.50
2022-11-29T20:06:38.407Z,23.33
2022-11-29T20:09:06.163Z,24.33
2022-11-29T20:11:35.047Z,23.63
2022-11-29T20:14:04.141Z,22.90
2022-11-29T20:16:31.541Z,21.98
2022-11-29T20:18:59.167Z,23.17
2022-11-29T20:21:31.309Z,23.42
2022-11-29T20:24:03.592Z,21.23
2022-11-29T20:26:38.349Z,22.65
2022-11-29T20:29:06.850Z,21.87
2022-11-29T20:31:35.494Z,23.25
2022-11-29T20:34:02.967Z,22.67
2022-11-29T20:36:58.150Z,22.90
2022-11-29T20:39:49.793Z,21.50
2022-11-29T20:42:44.608Z,21.70
2022-11-29T20:45:13.583Z,21.23
2022-11-29T20:47:48.713Z,22.45
2022-11-29T20:50:27.618Z,22.17
2022-11-29T20:53:03.259Z,22.15
2022-11-29T20:57:56.597Z,20.58
2022-11-29T21:00:26.114Z,20.95
2022-11-29T21:02:55.663Z,21.10
2022-11-29T21:05:22.561Z,21.90
2022-11-29T21:07:49.754Z,20.92
2022-11-29T21:10:18.176Z,22.20
2022-11-29T21:12:45.875Z,21.08
2022-11-29T21:15:34.271Z,20.90
2022-11-29T21:18:01.419Z,20.67
2022-11-29T21:20:30.889Z,20.67
2022-11-29T21:23:33.023Z,20.48
2022-11-29T21:26:11.407Z,20.35
2022-11-29T21:29:00.383Z,19.45
2022-11-29T21:31:29.882Z,19.83
2022-11-29T21:33:56.909Z,21.95
2022-11-29T21:36:23.698Z,19.75
2022-11-29T21:38:54.839Z,20.50
2022-11-29T21:41:22.271Z,19.48
2022-11-29T21:46:38.383Z,20.38
2022-11-29T21:49:05.382Z,20.48
2022-11-29T21:51:36.975Z,20.13
2022-11-29T21:54:08.445Z,20.73
2022-11-29T21:56:38.250Z,22.42
2022-11-29T21:59:05.763Z,21.88
2022-11-29T22:01:34.961Z,22.25
2022-11-29T22:04:01.861Z,22.92
2022-11-29T22:06:29.354Z,21.95
2022-11-29T22:08:57.000Z,21.98
2022-11-29T22:11:34.250Z,22.00
2022-11-29T22:14:19.182Z,21.45
2022-11-29T22:16:56.669Z,22.48
2022-11-29T22:19:31.765Z,20.92
2022-11-29T22:22:04.246Z,21.58
2022-11-29T22:24:37.836Z,21.77
2022-11-29T22:27:07.095Z,21.77
2022-11-29T22:29:33.762Z,21.83
2022-11-29T22:32:03.098Z,22.08
2022-11-29T22:34:33.169Z,23.88
2022-11-29T22:37:02.306Z,22.40
2022-11-29T22:39:31.137Z,22.88
2022-11-29T22:42:05.120Z,22.73
2022-11-29T22:44:31.934Z,22.30
2022-11-29T22:47:01.082Z,23.63
2022-11-29T22:49:27.793Z,22.08
2022-11-29T22:51:56.997Z,24.75
2022-11-29T22:54:23.647Z,22.33
2022-11-29T22:56:50.397Z,22.13
2022-11-29T22:59:21.802Z,23.33
2022-11-29T23:01:51.005Z,22.38
2022-11-29T23:04:20.946Z,22.45
2022-11-29T23:06:50.213Z,22.77
2022-11-29T23:09:21.637Z,23.95
2022-11-29T23:11:53.598Z,23.52
2022-11-29T23:14:23.464Z,22.38
2022-11-29T23:16:52.982Z,22.25
2022-11-29T23:19:22.790Z,22.15
2022-11-29T23:21:49.538Z,23.65
2022-11-29T23:24:18.731Z,22.75
2022-11-29T23:26:46.720Z,20.23
2022-11-29T23:29:21.184Z,23.13
2022-11-29T23:31:50.640Z,22.25
2022-11-29T23:34:17.393Z,22.38
2022-11-29T23:36:52.403Z,22.95
2022-11-29T23:41:50.734Z,20.83
2022-11-29T23:44:22.025Z,22.42
2022-11-29T23:46:53.249Z,23.65
2022-11-29T23:49:19.883Z,21.63
2022-11-29T23:51:46.505Z,23.08
2022-11-29T23:54:15.616Z,21.92
2022-11-29T23:56:44.595Z,21.48
2022-11-29T23:59:14.385Z,24.52
